createdAt,value
2022-12-03T00:00:10.443Z,41.00
2022-12-03T00:01:06.184Z,39.80
2022-12-03T00:02:04.216Z,38.30
2022-12-03T00:03:04.315Z,38.90
2022-12-03T00:04:04.208Z,38.50
2022-12-03T00:05:04.137Z,36.70
2022-12-03T00:06:04.118Z,33.60
2022-12-03T00:07:04.123Z,38.80
2022-12-03T00:08:04.177Z,36.50
2022-12-03T00:09:05.099Z,37.20
2022-12-03T00:10:04.085Z,37.50
2022-12-03T00:11:04.081Z,35.90
2022-12-03T00:12:04.088Z,40.20
2022-12-03T00:13:04.082Z,37.90
2022-12-03T00:14:04.044Z,40.50
2022-12-03T00:15:04.051Z,35.70
2022-12-03T00:16:04.073Z,35.30
2022-12-03T00:17:04.029Z,35.90
2022-12-03T00:18:04.027Z,36.90
2022-12-03T00:19:04.016Z,39.40
2022-12-03T00:20:04.011Z,33.60
2022-12-03T00:21:03.989Z,35.00
2022-12-03T00:22:03.982Z,36.00
2022-12-03T00:23:03.992Z,33.70
2022-12-03T00:24:03.965Z,36.40
2022-12-03T00:25:03.954Z,35.00
2022-12-03T00:26:03.944Z,35.20
2022-12-03T00:27:03.943Z,37.20
2022-12-03T00:28:03.962Z,41.10
2022-12-03T00:29:03.917Z,37.90
2022-12-03T00:30:03.925Z,38.70
2022-12-03T00:31:03.946Z,38.60
2022-12-03T00:32:03.890Z,38.90
2022-12-03T00:33:03.907Z,37.10
2022-12-03T00:34:03.888Z,37.80
2022-12-03T00:35:03.871Z,36.80
2022-12-03T00:36:03.850Z,38.10
2022-12-03T00:37:03.851Z,35.50
2022-12-03T00:38:03.860Z,38.90
2022-12-03T00:39:03.825Z,38.20
2022-12-03T00:40:03.860Z,38.10
2022-12-03T00:41:03.817Z,40.40
2022-12-03T00:42:03.792Z,39.60
2022-12-03T00:43:03.828Z,36.40
2022-12-03T00:44:03.783Z,38.70
2022-12-03T00:45:03.777Z,38.00
2022-12-03T00:46:03.842Z,36.30
2022-12-03T00:47:03.864Z,38.50
2022-12-03T00:48:03.743Z,39.10
2022-12-03T00:49:03.750Z,34.10
2022-12-03T00:50:03.722Z,36.00
2022-12-03T00:51:03.736Z,39.00
2022-12-03T00:52:03.712Z,37.60
2022-12-03T00:53:03.757Z,39.40
2022-12-03T00:54:03.704Z,38.90
2022-12-03T00:55:04.687Z,36.80
2022-12-03T00:56:03.678Z,36.50
2022-12-03T00:57:03.674Z,37.80
2022-12-03T00:58:03.649Z,39.10
2022-12-03T00:59:03.661Z,37.10
2022-12-03T01:00:03.654Z,38.60
2022-12-03T01:01:03.634Z,42.00
2022-12-03T01:02:03.693Z,38.40
2022-12-03T01:03:03.614Z,41.80
2022-12-03T01:04:03.658Z,41.80
2022-12-03T01:05:03.692Z,40.50
2022-12-03T01:06:03.576Z,44.70
2022-12-03T01:07:03.581Z,42.20
2022-12-03T01:08:03.695Z,45.90
2022-12-03T01:09:03.581Z,43.60
2022-12-03T01:10:03.539Z,43.00
2022-12-03T01:11:03.544Z,47.00
2022-12-03T01:12:03.537Z,46.50
2022-12-03T01:13:03.516Z,42.90
2022-12-03T01:14:03.540Z,43.60
2022-12-03T01:15:03.497Z,44.60
2022-12-03T01:16:03.585Z,45.40
2022-12-03T01:17:03.486Z,48.00
2022-12-03T01:18:03.466Z,46.90
2022-12-03T01:19:03.475Z,43.50
2022-12-03T01:20:03.470Z,46.90
2022-12-03T01:21:03.442Z,46.20
2022-12-03T01:22:03.436Z,49.50
2022-12-03T01:23:03.427Z,48.70
2022-12-03T01:24:03.427Z,48.20
2022-12-03T01:25:03.393Z,46.60
2022-12-03T01:26:03.386Z,46.00
2022-12-03T01:27:03.385Z,46.50
2022-12-03T01:28:03.363Z,47.20
2022-12-03T01:29:03.465Z,45.30
2022-12-03T01:30:03.353Z,46.70
2022-12-03T01:31:03.375Z,51.00
2022-12-03T01:32:03.329Z,48.70
2022-12-03T01:33:03.314Z,54.50
2022-12-03T01:34:03.326Z,48.00
2022-12-03T01:35:03.298Z,51.30
2022-12-03T01:36:03.285Z,50.60
2022-12-03T01:37:03.285Z,51.50
2022-12-03T01:38:03.271Z,52.80
2022-12-03T01:39:03.331Z,51.80
2022-12-03T01:40:03.281Z,48.20
2022-12-03T01:41:05.982Z,48.10
2022-12-03T01:42:05.233Z,47.30
2022-12-03T01:43:03.226Z,45.60
2022-12-03T01:44:03.233Z,46.70
2022-12-03T01:45:03.206Z,44.90
2022-12-03T01:46:03.230Z,46.30
2022-12-03T01:47:03.267Z,46.70
2022-12-03T01:48:03.174Z,46.20
2022-12-03T01:49:03.183Z,47.40
2022-12-03T01:50:03.161Z,42.40
2022-12-03T01:51:03.142Z,43.20
2022-12-03T01:52:03.140Z,41.60
2022-12-03T01:53:03.119Z,42.10
2022-12-03T01:54:03.152Z,41.80
2022-12-03T01:55:03.105Z,41.20
2022-12-03T01:56:03.108Z,39.60
2022-12-03T01:57:03.081Z,42.80
2022-12-03T01:58:04.078Z,41.60
2022-12-03T01:59:03.085Z,43.90
2022-12-03T02:00:03.069Z,38.10
2022-12-03T02:01:03.038Z,39.70
2022-12-03T02:02:03.094Z,41.50
2022-12-03T02:03:03.025Z,37.70
2022-12-03T02:04:03.098Z,42.00
2022-12-03T02:05:03.027Z,38.90
2022-12-03T02:06:02.997Z,36.50
2022-12-03T02:07:03.008Z,39.60
2022-12-03T02:08:03.031Z,39.70
2022-12-03T02:09:02.984Z,35.20
2022-12-03T02:10:02.961Z,38.30
2022-12-03T02:11:02.948Z,37.80
2022-12-03T02:12:02.943Z,37.20
2022-12-03T02:13:02.944Z,34.30
2022-12-03T02:14:02.946Z,39.30
2022-12-03T02:15:02.917Z,39.80
2022-12-03T02:16:02.927Z,39.80
2022-12-03T02:17:02.912Z,35.70
2022-12-03T02:18:02.887Z,38.50
2022-12-03T02:19:02.896Z,35.00
2022-12-03T02:20:02.864Z,32.50
2022-12-03T02:21:03.849Z,34.40
2022-12-03T02:22:02.855Z,34.50
2022-12-03T02:23:02.844Z,34.80
2022-12-03T02:24:02.847Z,34.90
2022-12-03T02:25:02.834Z,34.40
2022-12-03T02:26:02.805Z,34.10
2022-12-03T02:27:02.813Z,34.00
2022-12-03T02:28:02.817Z,32.40
2022-12-03T02:29:02.812Z,34.50
2022-12-03T02:30:02.777Z,37.30
2022-12-03T02:31:02.818Z,31.50
2022-12-03T02:32:02.760Z,33.90
2022-12-03T02:33:02.741Z,34.10
2022-12-03T02:34:02.747Z,37.30
2022-12-03T02:35:03.728Z,34.50
2022-12-03T02:36:04.048Z,35.40
2022-12-03T02:37:03.740Z,33.80
2022-12-03T02:38:02.703Z,36.20
2022-12-03T02:39:02.711Z,35.30
2022-12-03T02:40:02.687Z,33.70
2022-12-03T02:41:02.679Z,36.90
2022-12-03T02:42:02.716Z,33.00
2022-12-03T02:43:02.656Z,40.00
2022-12-03T02:44:02.676Z,33.70
2022-12-03T02:45:05.385Z,34.50
2022-12-03T02:46:03.634Z,36.70
2022-12-03T02:47:02.707Z,39.20
2022-12-03T02:48:02.617Z,37.40
2022-12-03T02:49:02.634Z,39.00
2022-12-03T02:50:02.586Z,39.50
2022-12-03T02:51:02.579Z,40.10
2022-12-03T02:52:02.588Z,35.80
2022-12-03T02:53:02.567Z,38.00
2022-12-03T02:54:02.574Z,37.50
2022-12-03T02:55:02.548Z,38.20
2022-12-03T02:56:02.541Z,36.00
2022-12-03T02:57:02.525Z,37.70
2022-12-03T02:58:02.522Z,38.50
2022-12-03T02:59:02.525Z,39.60
2022-12-03T03:00:02.495Z,37.60
2022-12-03T03:01:02.529Z,35.60
2022-12-03T03:02:02.524Z,39.40
2022-12-03T03:03:02.482Z,41.10
2022-12-03T03:04:02.479Z,36.70
2022-12-03T03:05:02.448Z,38.70
2022-12-03T03:08:09.124Z,38.60
2022-12-03T03:08:48.087Z,39.50
2022-12-03T03:09:48.059Z,40.80
2022-12-03T03:10:48.050Z,38.70
2022-12-03T03:11:48.039Z,38.50
2022-12-03T03:12:48.033Z,38.90
2022-12-03T03:13:48.035Z,44.50
2022-12-03T03:14:48.020Z,39.10
2022-12-03T03:15:48.025Z,39.10
2022-12-03T03:16:48.073Z,42.10
2022-12-03T03:17:47.982Z,41.30
2022-12-03T03:18:47.989Z,39.00
2022-12-03T03:19:49.096Z,37.10
2022-12-03T03:20:49.071Z,40.00
2022-12-03T03:21:49.060Z,37.30
2022-12-03T03:22:49.050Z,37.90
2022-12-03T03:23:49.064Z,41.50
2022-12-03T03:24:49.032Z,40.00
2022-12-03T03:25:49.024Z,36.70
2022-12-03T03:26:49.014Z,38.10
2022-12-03T03:27:49.006Z,35.10
2022-12-03T03:28:49.013Z,37.70
2022-12-03T03:29:48.984Z,39.60
2022-12-03T03:30:48.974Z,39.20
2022-12-03T03:31:49.049Z,39.10
2022-12-03T03:32:48.956Z,41.50
2022-12-03T03:33:48.970Z,36.30
2022-12-03T03:34:48.955Z,41.90
2022-12-03T03:35:48.929Z,40.30
2022-12-03T03:36:48.922Z,41.80
2022-12-03T03:37:48.912Z,42.00
2022-12-03T03:38:48.914Z,41.20
2022-12-03T03:39:48.887Z,36.30
2022-12-03T03:40:48.883Z,39.10
2022-12-03T03:41:48.882Z,39.80
2022-12-03T03:42:48.862Z,42.10
2022-12-03T03:44:20.773Z,40.10
2022-12-03T03:44:48.840Z,40.70
2022-12-03T03:45:48.850Z,37.20
2022-12-03T03:46:48.823Z,44.80
2022-12-03T03:47:48.807Z,42.00
2022-12-03T03:48:48.791Z,37.70
2022-12-03T03:49:49.806Z,38.70
2022-12-03T03:50:48.785Z,38.60
2022-12-03T03:51:48.783Z,37.90
2022-12-03T03:52:48.768Z,40.50
2022-12-03T03:53:48.755Z,40.30
2022-12-03T03:54:48.777Z,39.90
2022-12-03T03:55:48.725Z,40.90
2022-12-03T03:56:48.724Z,39.70
2022-12-03T03:57:48.711Z,42.60
2022-12-03T03:58:48.704Z,43.70
2022-12-03T03:59:48.700Z,40.60
2022-12-03T04:00:48.715Z,43.40
2022-12-03T04:01:48.746Z,42.30
2022-12-03T04:02:48.665Z,44.10
2022-12-03T04:03:48.698Z,44.50
2022-12-03T04:04:48.660Z,43.00
2022-12-03T04:05:48.636Z,42.30
2022-12-03T04:06:48.638Z,42.70
2022-12-03T04:07:48.649Z,38.40
2022-12-03T04:08:48.603Z,44.90
2022-12-03T04:09:48.613Z,38.60
2022-12-03T04:10:48.589Z,41.10
2022-12-03T04:11:48.577Z,39.70
2022-12-03T04:12:48.555Z,40.80
2022-12-03T04:13:48.550Z,41.40
2022-12-03T04:14:48.632Z,41.90
2022-12-03T04:15:48.534Z,41.60
2022-12-03T04:16:48.559Z,40.60
2022-12-03T04:17:48.515Z,44.00
2022-12-03T04:18:48.527Z,45.70
2022-12-03T04:19:48.525Z,42.10
2022-12-03T04:20:48.483Z,39.30
2022-12-03T04:21:48.475Z,39.60
2022-12-03T04:22:48.469Z,42.70
2022-12-03T04:23:48.466Z,41.40
2022-12-03T04:24:48.482Z,45.00
2022-12-03T04:25:48.444Z,46.00
2022-12-03T04:26:48.447Z,46.00
2022-12-03T04:27:48.424Z,44.10
2022-12-03T04:28:48.405Z,45.80
2022-12-03T04:29:48.410Z,42.70
2022-12-03T04:30:48.432Z,44.30
2022-12-03T04:31:48.380Z,43.50
2022-12-03T04:32:48.377Z,45.80
2022-12-03T04:33:48.360Z,44.10
2022-12-03T04:34:48.371Z,44.20
2022-12-03T04:35:48.402Z,46.30
2022-12-03T04:36:49.333Z,43.90
2022-12-03T04:37:48.317Z,42.60
2022-12-03T04:38:48.308Z,48.00
2022-12-03T04:39:48.311Z,46.60
2022-12-03T04:40:48.283Z,45.90
2022-12-03T04:41:48.276Z,46.20
2022-12-03T04:42:48.263Z,45.90
2022-12-03T04:43:48.263Z,42.10
2022-12-03T04:44:48.264Z,42.10
2022-12-03T04:45:48.357Z,46.90
2022-12-03T04:46:48.268Z,43.60
2022-12-03T04:47:48.216Z,46.50
2022-12-03T04:48:48.198Z,43.90
2022-12-03T04:49:48.207Z,44.20
2022-12-03T04:50:48.189Z,46.30
2022-12-03T04:51:48.183Z,43.10
2022-12-03T04:52:48.188Z,46.20
2022-12-03T04:53:48.157Z,43.60
2022-12-03T04:54:48.211Z,41.50
2022-12-03T04:55:48.145Z,45.90
2022-12-03T04:56:48.120Z,45.10
2022-12-03T04:57:48.119Z,42.90
2022-12-03T04:58:48.116Z,45.40
2022-12-03T04:59:48.135Z,48.60
2022-12-03T05:00:48.091Z,45.00
2022-12-03T05:01:48.143Z,45.40
2022-12-03T05:02:48.133Z,45.70
2022-12-03T05:03:48.064Z,43.50
2022-12-03T05:04:48.054Z,44.90
2022-12-03T05:05:48.056Z,45.70
2022-12-03T05:06:48.064Z,44.50
2022-12-03T05:07:48.119Z,45.70
2022-12-03T05:08:48.019Z,45.50
2022-12-03T05:09:48.038Z,46.40
2022-12-03T05:10:48.008Z,48.90
2022-12-03T05:11:47.998Z,43.90
2022-12-03T05:12:47.984Z,47.30
2022-12-03T05:13:47.979Z,45.40
2022-12-03T05:14:47.985Z,47.10
2022-12-03T05:15:47.957Z,43.80
2022-12-03T05:16:48.024Z,42.70
2022-12-03T05:17:47.934Z,46.30
2022-12-03T05:18:47.928Z,46.90
2022-12-03T05:19:47.957Z,47.20
2022-12-03T05:20:53.262Z,41.80
2022-12-03T05:21:48.903Z,46.00
2022-12-03T05:22:47.909Z,45.60
2022-12-03T05:23:47.905Z,47.70
2022-12-03T05:24:47.877Z,49.50
2022-12-03T05:25:47.860Z,44.20
2022-12-03T05:26:47.847Z,45.70
2022-12-03T05:27:47.849Z,41.70
2022-12-03T05:28:47.828Z,43.80
2022-12-03T05:29:47.863Z,39.70
2022-12-03T05:30:47.928Z,47.20
2022-12-03T05:31:47.801Z,41.30
2022-12-03T05:32:47.789Z,42.00
2022-12-03T05:33:47.784Z,42.00
2022-12-03T05:34:47.820Z,43.50
2022-12-03T05:35:47.767Z,36.60
2022-12-03T05:36:47.756Z,41.40
2022-12-03T05:37:47.745Z,41.50
2022-12-03T05:38:47.737Z,42.00
2022-12-03T05:39:47.762Z,41.70
2022-12-03T05:40:47.713Z,41.20
2022-12-03T05:41:47.710Z,40.20
2022-12-03T05:42:47.719Z,43.50
2022-12-03T05:43:47.690Z,39.90
2022-12-03T05:44:47.706Z,40.40
2022-12-03T05:45:47.708Z,40.50
2022-12-03T05:46:47.666Z,40.30
2022-12-03T05:47:47.670Z,42.60
2022-12-03T05:48:47.638Z,40.60
2022-12-03T05:49:47.628Z,39.20
2022-12-03T05:50:48.639Z,39.20
2022-12-03T05:51:47.612Z,37.90
2022-12-03T05:52:47.606Z,41.10
2022-12-03T05:53:47.603Z,40.40
2022-12-03T05:54:47.587Z,40.00
2022-12-03T05:55:47.604Z,39.80
2022-12-03T05:56:47.565Z,42.60
2022-12-03T05:57:48.564Z,40.00
2022-12-03T05:58:47.549Z,43.50
2022-12-03T05:59:47.544Z,42.30
2022-12-03T06:00:47.543Z,42.30
2022-12-03T06:01:47.518Z,42.10
2022-12-03T06:02:47.633Z,42.10
2022-12-03T06:03:47.665Z,39.10
2022-12-03T06:04:47.484Z,40.90
2022-12-03T06:05:47.498Z,40.20
2022-12-03T06:06:47.468Z,40.80
2022-12-03T06:07:47.557Z,38.90
2022-12-03T06:08:47.457Z,38.50
2022-12-03T06:09:47.442Z,42.10
2022-12-03T06:10:47.460Z,40.00
2022-12-03T06:11:47.486Z,40.70
2022-12-03T06:12:47.410Z,38.60
2022-12-03T06:13:47.402Z,39.80
2022-12-03T06:14:47.394Z,41.20
2022-12-03T06:15:47.417Z,51.80
2022-12-03T06:16:47.421Z,47.40
2022-12-03T06:17:47.375Z,42.60
2022-12-03T06:18:47.351Z,40.90
2022-12-03T06:19:47.348Z,45.30
2022-12-03T06:20:47.351Z,41.00
2022-12-03T06:21:47.329Z,41.30
2022-12-03T06:22:48.324Z,42.20
2022-12-03T06:23:47.344Z,45.40
2022-12-03T06:24:47.305Z,42.70
2022-12-03T06:25:47.317Z,40.70
2022-12-03T06:26:47.282Z,38.20
2022-12-03T06:27:47.272Z,39.00
2022-12-03T06:28:47.255Z,39.10
2022-12-03T06:29:47.249Z,40.40
2022-12-03T06:30:47.282Z,36.30
2022-12-03T06:31:47.273Z,42.80
2022-12-03T06:32:47.228Z,36.20
2022-12-03T06:33:47.217Z,35.30
2022-12-03T06:34:47.209Z,36.70
2022-12-03T06:35:47.217Z,40.00
2022-12-03T06:36:47.193Z,37.50
2022-12-03T06:37:47.180Z,38.40
2022-12-03T06:38:47.164Z,37.10
2022-12-03T06:39:47.167Z,36.60
2022-12-03T06:40:47.189Z,37.70
2022-12-03T06:41:47.138Z,34.60
2022-12-03T06:42:47.126Z,38.10
2022-12-03T06:43:47.121Z,34.70
2022-12-03T06:44:47.117Z,37.60
2022-12-03T06:45:48.029Z,38.80
2022-12-03T06:46:48.140Z,38.50
2022-12-03T06:47:47.079Z,36.80
2022-12-03T06:48:47.082Z,36.00
2022-12-03T06:49:47.072Z,37.10
2022-12-03T06:50:47.072Z,36.10
2022-12-03T06:51:47.028Z,35.90
2022-12-03T06:52:47.043Z,35.70
2022-12-03T06:53:47.026Z,39.20
2022-12-03T06:54:47.030Z,34.80
2022-12-03T06:55:47.028Z,39.70
2022-12-03T06:56:46.993Z,39.90
2022-12-03T06:57:46.989Z,45.20
2022-12-03T06:58:46.975Z,34.50
2022-12-03T06:59:46.968Z,36.10
2022-12-03T07:00:46.969Z,36.40
2022-12-03T07:01:48.009Z,37.10
2022-12-03T07:02:47.032Z,35.00
2022-12-03T07:03:46.931Z,38.10
2022-12-03T07:04:46.925Z,38.40
2022-12-03T07:05:46.933Z,38.40
2022-12-03T07:06:46.897Z,41.10
2022-12-03T07:07:46.909Z,38.00
2022-12-03T07:08:46.878Z,35.80
2022-12-03T07:09:46.871Z,39.20
2022-12-03T07:10:46.889Z,40.30
2022-12-03T07:11:46.844Z,42.40
2022-12-03T07:12:46.848Z,39.10
2022-12-03T07:13:46.835Z,37.00
2022-12-03T07:14:46.824Z,38.00
2022-12-03T07:15:46.936Z,39.60
2022-12-03T07:16:46.817Z,36.20
2022-12-03T07:17:46.799Z,37.30
2022-12-03T07:18:46.787Z,41.70
2022-12-03T07:19:46.780Z,40.00
2022-12-03T07:20:46.806Z,36.10
2022-12-03T07:21:46.763Z,38.00
2022-12-03T07:22:46.747Z,39.90
2022-12-03T07:23:46.738Z,39.70
2022-12-03T07:24:46.736Z,40.60
2022-12-03T07:25:46.743Z,40.40
2022-12-03T07:26:46.711Z,39.10
2022-12-03T07:27:46.706Z,38.80
2022-12-03T07:28:46.701Z,39.90
2022-12-03T07:29:46.690Z,39.90
2022-12-03T07:30:46.695Z,39.70
2022-12-03T07:31:46.714Z,40.20
2022-12-03T07:32:46.654Z,39.80
2022-12-03T07:33:46.647Z,42.40
2022-12-03T07:34:46.641Z,39.00
2022-12-03T07:35:46.674Z,41.30
2022-12-03T07:36:46.622Z,42.40
2022-12-03T07:37:46.639Z,41.00
2022-12-03T07:38:46.602Z,41.50
2022-12-03T07:39:46.584Z,43.00
2022-12-03T07:40:46.615Z,42.10
2022-12-03T07:41:46.574Z,40.80
2022-12-03T07:42:46.567Z,40.10
2022-12-03T07:43:46.559Z,40.90
2022-12-03T07:44:46.550Z,41.00
2022-12-03T07:45:46.553Z,41.60
2022-12-03T07:46:46.607Z,41.30
2022-12-03T07:47:46.518Z,44.50
2022-12-03T07:48:46.514Z,39.90
2022-12-03T07:49:46.506Z,44.10
2022-12-03T07:50:46.512Z,44.90
2022-12-03T07:51:46.494Z,45.80
2022-12-03T07:52:46.474Z,44.30
2022-12-03T07:53:46.472Z,47.30
2022-12-03T07:54:46.464Z,45.90
2022-12-03T07:55:46.477Z,45.30
2022-12-03T07:56:46.444Z,46.90
2022-12-03T07:57:46.435Z,49.20
2022-12-03T07:58:46.425Z,45.90
2022-12-03T07:59:46.409Z,45.30
2022-12-03T08:00:46.443Z,45.80
2022-12-03T08:01:46.465Z,46.60
2022-12-03T08:02:46.461Z,46.40
2022-12-03T08:03:46.373Z,44.90
2022-12-03T08:04:46.372Z,49.50
2022-12-03T08:05:46.382Z,49.80
2022-12-03T08:06:46.351Z,48.60
2022-12-03T08:07:46.427Z,51.00
2022-12-03T08:08:46.332Z,49.50
2022-12-03T08:09:46.339Z,51.60
2022-12-03T08:10:46.354Z,47.80
2022-12-03T08:11:46.305Z,46.30
2022-12-03T08:12:46.308Z,47.00
2022-12-03T08:13:46.285Z,47.90
2022-12-03T08:14:46.280Z,50.00
2022-12-03T08:15:46.295Z,49.20
2022-12-03T08:16:46.319Z,50.90
2022-12-03T08:17:46.258Z,51.40
2022-12-03T08:18:46.244Z,51.00
2022-12-03T08:19:46.249Z,50.10
2022-12-03T08:20:46.253Z,49.90
2022-12-03T08:21:46.220Z,50.30
2022-12-03T08:22:46.217Z,49.00
2022-12-03T08:23:46.207Z,50.20
2022-12-03T08:24:46.203Z,47.80
2022-12-03T08:25:46.204Z,46.60
2022-12-03T08:26:46.178Z,46.40
2022-12-03T08:27:46.165Z,45.70
2022-12-03T08:28:46.149Z,46.30
2022-12-03T08:29:46.146Z,46.30
2022-12-03T08:30:46.145Z,44.10
2022-12-03T08:31:46.176Z,45.50
2022-12-03T08:32:46.119Z,49.70
2022-12-03T08:33:46.117Z,47.50
2022-12-03T08:34:46.107Z,50.10
2022-12-03T08:35:46.111Z,50.10
2022-12-03T08:36:46.083Z,52.80
2022-12-03T08:37:46.065Z,55.20
2022-12-03T08:38:46.069Z,55.70
2022-12-03T08:39:46.052Z,57.60
2022-12-03T08:40:46.069Z,54.80
2022-12-03T08:41:46.035Z,49.80
2022-12-03T08:42:46.026Z,51.40
2022-12-03T08:43:46.017Z,54.90
2022-12-03T08:44:46.049Z,50.70
2022-12-03T08:45:46.096Z,50.50
2022-12-03T08:46:45.991Z,51.30
2022-12-03T08:47:45.983Z,53.40
2022-12-03T08:48:49.045Z,51.20
2022-12-03T08:49:46.966Z,52.30
2022-12-03T08:50:45.974Z,50.70
2022-12-03T08:51:45.946Z,51.90
2022-12-03T08:52:45.932Z,51.30
2022-12-03T08:53:45.940Z,56.30
2022-12-03T08:54:45.905Z,55.20
2022-12-03T08:55:46.939Z,61.10
2022-12-03T08:56:45.892Z,54.40
2022-12-03T08:57:45.892Z,54.20
2022-12-03T08:58:45.890Z,47.40
2022-12-03T08:59:46.005Z,53.50
2022-12-03T09:00:45.890Z,52.70
2022-12-03T09:01:45.930Z,52.30
2022-12-03T09:02:45.870Z,53.50
2022-12-03T09:03:45.870Z,54.10
2022-12-03T09:04:45.844Z,55.00
2022-12-03T09:05:45.835Z,53.80
2022-12-03T09:06:45.816Z,53.80
2022-12-03T09:07:45.873Z,56.90
2022-12-03T09:08:45.786Z,52.10
2022-12-03T09:09:45.779Z,53.60
2022-12-03T09:10:45.788Z,51.80
2022-12-03T09:11:45.776Z,51.80
2022-12-03T09:12:45.753Z,47.80
2022-12-03T09:13:45.755Z,53.20
2022-12-03T09:14:45.734Z,53.30
2022-12-03T09:15:45.752Z,51.50
2022-12-03T09:16:45.851Z,53.80
2022-12-03T09:17:45.710Z,50.90
2022-12-03T09:18:45.708Z,53.10
2022-12-03T09:19:46.351Z,53.60
2022-12-03T09:20:46.708Z,48.80
2022-12-03T09:21:45.676Z,52.50
2022-12-03T09:22:45.671Z,52.10
2022-12-03T09:23:45.659Z,49.90
2022-12-03T09:24:45.649Z,49.20
2022-12-03T09:25:45.665Z,50.40
2022-12-03T09:26:45.642Z,48.80
2022-12-03T09:27:45.622Z,50.80
2022-12-03T09:28:45.616Z,49.50
2022-12-03T09:29:45.595Z,51.20
2022-12-03T09:30:45.594Z,50.20
2022-12-03T09:31:45.653Z,48.10
2022-12-03T09:32:45.571Z,47.80
2022-12-03T09:33:45.568Z,50.60
2022-12-03T09:34:45.557Z,54.70
2022-12-03T09:35:45.552Z,47.30
2022-12-03T09:36:45.562Z,51.30
2022-12-03T09:37:45.529Z,48.90
2022-12-03T09:38:47.873Z,49.70
2022-12-03T09:39:46.516Z,51.00
2022-12-03T09:40:45.504Z,49.50
2022-12-03T09:41:45.525Z,49.50
2022-12-03T09:42:45.489Z,48.10
2022-12-03T09:44:47.483Z,44.70
2022-12-03T09:46:20.360Z,47.60
2022-12-03T09:46:45.455Z,47.80
2022-12-03T09:47:45.432Z,50.30
2022-12-03T09:48:45.433Z,49.70
2022-12-03T09:49:45.429Z,49.30
2022-12-03T09:50:45.409Z,50.10
2022-12-03T09:51:45.414Z,50.50
2022-12-03T09:52:45.412Z,52.50
2022-12-03T09:53:45.410Z,52.90
2022-12-03T09:54:47.589Z,56.50
2022-12-03T09:55:46.366Z,57.80
2022-12-03T09:56:45.380Z,53.60
2022-12-03T09:57:45.356Z,53.70
2022-12-03T09:58:45.350Z,51.20
2022-12-03T09:59:45.327Z,50.60
2022-12-03T10:00:45.321Z,51.30
2022-12-03T10:01:45.400Z,52.40
2022-12-03T10:02:45.325Z,48.20
2022-12-03T10:03:45.281Z,50.50
2022-12-03T10:04:45.383Z,53.00
2022-12-03T10:05:48.210Z,52.00
2022-12-03T10:06:46.524Z,49.40
2022-12-03T10:07:45.374Z,49.60
2022-12-03T10:08:45.244Z,50.90
2022-12-03T10:09:45.235Z,49.50
2022-12-03T10:10:45.229Z,51.80
2022-12-03T10:11:45.230Z,49.40
2022-12-03T10:12:45.208Z,50.50
2022-12-03T10:13:45.193Z,49.10
2022-12-03T10:14:45.186Z,50.80
2022-12-03T10:15:45.175Z,48.10
2022-12-03T10:16:45.289Z,47.00
2022-12-03T10:17:45.161Z,47.90
2022-12-03T10:18:45.152Z,46.60
2022-12-03T10:19:45.146Z,48.50
2022-12-03T10:20:45.121Z,49.10
2022-12-03T10:21:46.151Z,47.10
2022-12-03T10:22:45.118Z,48.90
2022-12-03T10:23:46.473Z,45.80
2022-12-03T10:24:45.229Z,47.50
2022-12-03T10:25:45.094Z,48.50
2022-12-03T10:26:45.101Z,49.40
2022-12-03T10:27:45.062Z,49.90
2022-12-03T10:28:45.064Z,47.80
2022-12-03T10:29:45.061Z,47.20
2022-12-03T10:30:45.127Z,48.50
2022-12-03T10:31:45.058Z,46.90
2022-12-03T10:32:45.028Z,46.40
2022-12-03T10:33:45.026Z,45.40
2022-12-03T10:34:45.009Z,45.50
2022-12-03T10:35:44.994Z,45.70
2022-12-03T10:36:45.024Z,47.70
2022-12-03T10:37:44.992Z,49.10
2022-12-03T10:38:44.973Z,47.70
2022-12-03T10:39:44.974Z,49.80
2022-12-03T10:40:44.959Z,50.70
2022-12-03T10:41:44.961Z,47.20
2022-12-03T10:42:44.939Z,48.20
2022-12-03T10:43:44.917Z,46.60
2022-12-03T10:44:44.921Z,44.60
2022-12-03T10:45:44.960Z,49.60
2022-12-03T10:46:45.111Z,52.80
2022-12-03T10:47:44.964Z,50.40
2022-12-03T10:48:44.930Z,50.60
2022-12-03T10:49:44.880Z,50.40
2022-12-03T10:50:44.973Z,48.60
2022-12-03T10:51:44.879Z,47.40
2022-12-03T10:52:44.853Z,49.60
2022-12-03T10:53:44.844Z,62.40
2022-12-03T10:54:44.839Z,49.60
2022-12-03T10:55:44.823Z,58.20
2022-12-03T10:56:44.834Z,58.50
2022-12-03T10:57:46.119Z,64.20
2022-12-03T10:58:45.797Z,73.30
2022-12-03T10:59:44.803Z,57.00
2022-12-03T11:00:45.783Z,111.40
2022-12-03T11:01:44.913Z,78.80
2022-12-03T11:02:44.761Z,75.30
2022-12-03T11:03:44.810Z,89.10
2022-12-03T11:04:44.745Z,64.90
2022-12-03T11:05:44.729Z,55.60
2022-12-03T11:06:44.743Z,52.10
2022-12-03T11:07:44.779Z,53.00
2022-12-03T11:08:44.715Z,51.40
2022-12-03T11:09:44.693Z,49.80
2022-12-03T11:10:44.696Z,51.10
2022-12-03T11:11:44.741Z,49.50
2022-12-03T11:12:44.678Z,46.70
2022-12-03T11:13:44.687Z,50.90
2022-12-03T11:14:44.679Z,50.80
2022-12-03T11:15:44.726Z,49.90
2022-12-03T11:16:44.697Z,51.10
2022-12-03T11:17:44.676Z,51.30
2022-12-03T11:18:44.659Z,48.70
2022-12-03T11:19:44.672Z,47.30
2022-12-03T11:20:44.601Z,49.30
2022-12-03T11:21:44.678Z,51.50
2022-12-03T11:22:45.584Z,48.80
2022-12-03T11:23:44.577Z,49.00
2022-12-03T11:24:44.552Z,48.60
2022-12-03T11:25:44.560Z,50.60
2022-12-03T11:26:44.571Z,50.80
2022-12-03T11:27:44.534Z,48.50
2022-12-03T11:28:44.535Z,48.80
2022-12-03T11:29:44.530Z,49.00
2022-12-03T11:30:44.531Z,49.10
2022-12-03T11:31:44.715Z,48.30
2022-12-03T11:32:44.500Z,50.50
2022-12-03T11:33:44.499Z,47.80
2022-12-03T11:34:44.479Z,49.70
2022-12-03T11:35:44.470Z,52.20
2022-12-03T11:37:01.116Z,51.50
2022-12-03T11:37:46.459Z,49.90
2022-12-03T11:38:50.752Z,51.00
2022-12-03T11:39:45.439Z,52.80
2022-12-03T11:40:44.426Z,49.00
2022-12-03T11:41:44.442Z,48.70
2022-12-03T11:42:44.412Z,47.70
2022-12-03T11:43:44.415Z,49.10
2022-12-03T11:44:44.393Z,48.80
2022-12-03T11:45:44.389Z,49.10
2022-12-03T11:46:44.454Z,50.70
2022-12-03T11:47:44.362Z,47.70
2022-12-03T11:48:44.360Z,49.80
2022-12-03T11:49:44.356Z,47.90
2022-12-03T11:50:44.373Z,47.30
2022-12-03T11:51:44.366Z,47.10
2022-12-03T11:52:44.347Z,51.70
2022-12-03T11:53:44.314Z,51.10
2022-12-03T11:54:44.304Z,52.10
2022-12-03T11:55:44.301Z,48.40
2022-12-03T11:56:44.357Z,51.60
2022-12-03T11:57:44.288Z,52.70
2022-12-03T11:58:44.275Z,52.90
2022-12-03T11:59:44.253Z,52.70
2022-12-03T12:00:44.250Z,52.80
2022-12-03T12:01:44.267Z,52.60
2022-12-03T12:02:44.409Z,52.70
2022-12-03T12:03:44.341Z,55.40
2022-12-03T12:04:44.225Z,56.50
2022-12-03T12:05:44.206Z,51.00
2022-12-03T12:06:44.206Z,58.30
2022-12-03T12:07:44.240Z,62.30
2022-12-03T12:08:44.253Z,55.20
2022-12-03T12:09:44.177Z,47.90
2022-12-03T12:10:44.169Z,48.70
2022-12-03T12:11:44.146Z,51.50
2022-12-03T12:12:51.050Z,51.70
2022-12-03T12:13:46.140Z,51.80
2022-12-03T12:14:44.170Z,51.90
2022-12-03T12:15:44.216Z,51.60
2022-12-03T12:16:44.229Z,51.90
2022-12-03T12:17:44.121Z,54.40
2022-12-03T12:18:44.085Z,54.00
2022-12-03T12:19:46.470Z,49.90
2022-12-03T12:20:44.150Z,50.90
2022-12-03T12:21:44.116Z,53.40
2022-12-03T12:22:44.109Z,51.50
2022-12-03T12:23:45.130Z,51.60
2022-12-03T12:24:44.114Z,54.90
2022-12-03T12:25:44.063Z,54.10
2022-12-03T12:26:44.065Z,50.20
2022-12-03T12:27:44.071Z,53.90
2022-12-03T12:28:44.021Z,52.00
2022-12-03T12:29:44.022Z,49.00
2022-12-03T12:30:44.013Z,52.10
2022-12-03T12:31:44.056Z,54.40
2022-12-03T12:32:44.051Z,57.30
2022-12-03T12:33:44.017Z,57.90
2022-12-03T12:34:43.961Z,57.70
2022-12-03T12:35:43.985Z,53.60
2022-12-03T12:36:43.975Z,51.30
2022-12-03T12:37:47.353Z,55.90
2022-12-03T12:38:44.913Z,53.10
2022-12-03T12:39:43.979Z,53.70
2022-12-03T12:40:43.928Z,52.10
2022-12-03T12:41:43.923Z,48.40
2022-12-03T12:42:43.936Z,50.20
2022-12-03T12:43:43.875Z,55.10
2022-12-03T12:44:43.854Z,51.80
2022-12-03T12:45:43.898Z,49.60
2022-12-03T12:46:48.490Z,51.20
2022-12-03T12:47:46.010Z,53.80
2022-12-03T12:48:43.859Z,57.00
2022-12-03T12:49:48.659Z,57.40
2022-12-03T12:50:45.819Z,54.90
2022-12-03T12:51:43.838Z,54.50
2022-12-03T12:52:43.805Z,57.80
2022-12-03T12:53:43.813Z,56.30
2022-12-03T12:54:43.784Z,58.20